createdAt,value
2022-11-25T00:02:49.779Z,6.61
2022-11-25T00:07:51.723Z,6.62
2022-11-25T00:12:53.386Z,6.57
2022-11-25T00:18:01.753Z,6.63
2022-11-25T00:23:07.386Z,6.64
2022-11-25T00:28:27.608Z,6.46
2022-11-25T00:33:38.489Z,6.51
2022-11-25T00:38:43.067Z,6.48
2022-11-25T00:43:50.412Z,6.55
2022-11-25T00:48:56.064Z,6.55
2022-11-25T00:53:59.148Z,6.53
2022-11-25T00:59:00.778Z,6.58
2022-11-25T01:04:02.916Z,6.63
2022-11-25T01:09:06.353Z,6.50
2022-11-25T01:14:11.313Z,6.57
2022-11-25T01:19:16.143Z,6.72
2022-11-25T01:24:21.112Z,6.79
2022-11-25T01:29:23.194Z,6.83
2022-11-25T01:34:27.386Z,6.87
2022-11-25T01:44:39.641Z,6.93
2022-11-25T01:55:01.132Z,7.00
2022-11-25T02:00:08.914Z,7.04
2022-11-25T02:05:17.613Z,7.10
2022-11-25T02:10:26.432Z,7.03
2022-11-25T02:15:31.070Z,7.08
2022-11-25T02:25:53.503Z,7.13
2022-11-25T02:30:56.865Z,7.23
2022-11-25T02:36:15.731Z,7.22
2022-11-25T02:41:52.004Z,7.26
2022-11-25T02:47:03.216Z,7.21
2022-11-25T02:57:06.316Z,7.33
2022-11-25T03:02:07.670Z,7.21
2022-11-25T03:07:09.144Z,7.29
2022-11-25T03:12:10.573Z,7.42
2022-11-25T03:17:12.041Z,7.43
2022-11-25T03:22:13.496Z,7.39
2022-11-25T03:27:14.955Z,7.26
2022-11-25T03:32:16.583Z,7.35
2022-11-25T03:37:19.191Z,7.37
2022-11-25T03:42:20.629Z,7.40
2022-11-25T03:47:22.268Z,7.51
2022-11-25T03:57:25.601Z,7.58
2022-11-25T04:02:27.137Z,7.57
2022-11-25T04:07:57.720Z,7.66
2022-11-25T04:12:59.576Z,7.78
2022-11-25T04:18:01.007Z,7.80
2022-11-25T04:23:02.356Z,7.92
2022-11-25T04:33:06.281Z,8.06
2022-11-25T04:38:07.723Z,8.00
2022-11-25T04:43:10.707Z,7.98
2022-11-25T04:48:12.255Z,8.01
2022-11-25T04:58:15.702Z,7.98
2022-11-25T05:03:17.028Z,8.00
2022-11-25T05:08:18.410Z,7.89
2022-11-25T05:13:19.822Z,7.86
2022-11-25T05:18:21.187Z,7.85
2022-11-25T05:23:22.549Z,7.79
2022-11-25T05:28:25.413Z,7.76
2022-11-25T05:33:27.352Z,7.81
2022-11-25T05:38:29.418Z,7.67
2022-11-25T05:43:31.331Z,7.79
2022-11-25T05:48:32.791Z,7.67
2022-11-25T05:53:34.147Z,7.70
2022-11-25T05:58:35.524Z,7.61
2022-11-25T06:03:37.502Z,7.59
2022-11-25T06:08:40.136Z,7.46
2022-11-25T06:13:42.875Z,7.58
2022-11-25T06:18:44.403Z,7.53
2022-11-25T06:23:54.837Z,7.63
2022-11-25T06:28:56.849Z,7.48
2022-11-25T06:33:58.201Z,7.56
2022-11-25T06:38:59.541Z,7.64
2022-11-25T06:44:00.923Z,7.51
2022-11-25T06:49:02.321Z,7.52
2022-11-25T06:54:03.941Z,7.44
2022-11-25T06:59:05.301Z,7.55
2022-11-25T07:04:06.765Z,7.58
2022-11-25T07:09:08.614Z,7.53
2022-11-25T07:14:12.613Z,7.44
2022-11-25T07:19:16.043Z,7.47
2022-11-25T07:24:18.365Z,7.45
2022-11-25T07:34:41.245Z,7.38
2022-11-25T07:39:42.582Z,7.35
2022-11-25T07:44:43.910Z,7.25
2022-11-25T07:49:45.411Z,7.27
2022-11-25T07:54:46.744Z,7.33
2022-11-25T07:59:48.089Z,7.36
2022-11-25T08:04:49.467Z,7.38
2022-11-25T08:14:52.257Z,7.30
2022-11-25T08:24:55.102Z,7.56
2022-11-25T08:29:56.505Z,7.65
2022-11-25T08:34:57.906Z,7.74
2022-11-25T08:40:00.066Z,7.81
2022-11-25T08:45:01.889Z,8.20
2022-11-25T08:50:07.539Z,8.34
2022-11-25T09:00:11.472Z,8.55
2022-11-25T09:05:15.600Z,8.87
2022-11-25T09:10:17.184Z,9.24
2022-11-25T09:15:18.502Z,9.53
2022-11-25T09:20:19.896Z,9.93
2022-11-25T09:25:22.602Z,10.24
2022-11-25T09:30:25.097Z,10.49
2022-11-25T09:35:27.498Z,10.77
2022-11-25T09:40:40.287Z,10.83
2022-11-25T09:46:13.491Z,10.92
2022-11-25T09:51:34.994Z,10.86
2022-11-25T10:02:02.043Z,10.96
2022-11-25T10:07:04.341Z,11.00
2022-11-25T10:12:13.498Z,11.06
2022-11-25T10:17:30.929Z,11.20
2022-11-25T10:22:34.847Z,11.45
2022-11-25T10:37:57.440Z,12.46
2022-11-25T10:43:02.003Z,12.72
2022-11-25T10:48:18.153Z,13.33
2022-11-25T10:53:27.373Z,12.87
2022-11-25T11:08:41.336Z,12.23
2022-11-25T11:13:43.855Z,12.18
2022-11-25T11:18:45.264Z,12.21
2022-11-25T11:23:50.466Z,12.34
2022-11-25T11:29:14.489Z,12.20
2022-11-25T11:34:24.682Z,12.42
2022-11-25T11:39:45.153Z,12.41
2022-11-25T11:45:19.941Z,11.75
2022-11-25T11:50:31.737Z,12.37
2022-11-25T11:55:42.230Z,12.55
2022-11-25T12:01:37.261Z,12.48
2022-11-25T12:07:21.021Z,13.06
2022-11-25T12:24:30.037Z,13.96
2022-11-25T12:36:53.859Z,14.01
2022-11-25T12:47:40.668Z,13.66
2022-11-25T12:59:05.768Z,14.02
2022-11-25T13:04:42.146Z,14.04
2022-11-25T13:15:53.705Z,12.99
2022-11-25T13:42:44.659Z,12.84
2022-11-25T13:47:49.016Z,12.88
2022-11-25T13:58:21.093Z,12.65
2022-11-25T14:03:22.520Z,12.65
2022-11-25T14:08:45.826Z,12.52
2022-11-25T14:14:22.849Z,12.43
2022-11-25T14:19:55.628Z,12.25
2022-11-25T14:25:42.918Z,12.20
2022-11-25T14:30:53.630Z,12.33
2022-11-25T14:41:18.763Z,12.17
2022-11-25T14:46:26.565Z,12.00
2022-11-25T14:51:36.369Z,11.87
2022-11-25T15:01:56.904Z,11.64
2022-11-25T15:12:10.825Z,11.39
2022-11-25T15:17:29.043Z,11.35
2022-11-25T15:22:31.713Z,11.30
2022-11-25T15:27:48.803Z,11.25
2022-11-25T15:38:19.067Z,11.04
2022-11-25T15:43:29.956Z,10.96
2022-11-25T15:48:41.202Z,10.88
2022-11-25T15:53:54.104Z,10.65
2022-11-25T15:59:06.714Z,10.50
2022-11-25T16:04:46.598Z,10.47
2022-11-25T16:09:51.017Z,10.28
2022-11-25T16:15:04.648Z,10.23
2022-11-25T16:25:58.467Z,10.10
2022-11-25T16:31:11.101Z,10.16
2022-11-25T16:36:17.147Z,10.08
2022-11-25T16:41:25.761Z,10.25
2022-11-25T16:46:31.945Z,10.13
2022-11-25T16:57:27.285Z,10.16
2022-11-25T17:02:41.339Z,10.15
2022-11-25T17:07:43.210Z,10.13
2022-11-25T17:12:48.977Z,10.01
2022-11-25T17:17:54.575Z,10.03
2022-11-25T17:33:24.942Z,9.90
2022-11-25T17:43:33.170Z,9.88
2022-11-25T17:48:42.335Z,9.96
2022-11-25T17:53:47.307Z,9.93
2022-11-25T17:58:52.473Z,9.95
2022-11-25T18:09:10.825Z,9.85
2022-11-25T18:25:15.106Z,9.91
2022-11-25T18:36:19.654Z,9.75
2022-11-25T18:41:53.564Z,9.69
2022-11-25T18:52:08.669Z,9.72
2022-11-25T18:57:19.717Z,9.67
2022-11-25T19:12:53.883Z,9.60
2022-11-25T19:18:08.507Z,9.63
2022-11-25T19:23:47.553Z,9.50
2022-11-25T19:28:54.670Z,9.49
2022-11-25T19:33:56.090Z,9.35
2022-11-25T19:49:02.825Z,9.09
2022-11-25T20:04:13.283Z,8.93
2022-11-25T20:24:20.446Z,8.45
2022-11-25T20:29:27.364Z,8.38
2022-11-25T20:34:31.545Z,8.29
2022-11-25T20:39:33.202Z,8.27
2022-11-25T20:44:35.556Z,8.21
2022-11-25T20:49:37.136Z,8.15
2022-11-25T20:54:38.695Z,8.03
2022-11-25T20:59:40.483Z,7.97
2022-11-25T21:04:41.933Z,7.86
2022-11-25T21:09:43.630Z,7.83
2022-11-25T21:14:45.011Z,7.68
2022-11-25T21:19:46.413Z,7.57
2022-11-25T21:29:49.468Z,7.35
2022-11-25T21:34:51.816Z,7.24
2022-11-25T21:39:53.406Z,7.29
2022-11-25T21:44:55.159Z,7.24
2022-11-25T21:49:57.811Z,7.29
2022-11-25T21:54:59.179Z,7.26
2022-11-25T22:00:03.010Z,7.22
2022-11-25T22:05:13.201Z,7.18
2022-11-25T22:10:15.712Z,7.17
2022-11-25T22:20:28.022Z,6.98
2022-11-25T22:25:32.515Z,6.85
2022-11-25T22:30:34.038Z,6.77
2022-11-25T22:35:35.460Z,6.69
2022-11-25T22:40:36.801Z,6.60
2022-11-25T22:45:38.255Z,6.55
2022-11-25T22:50:40.124Z,6.44
2022-11-25T22:55:41.513Z,6.37
2022-11-25T23:00:45.955Z,6.31
2022-11-25T23:05:50.008Z,6.31
2022-11-25T23:10:52.707Z,6.17
2022-11-25T23:15:56.914Z,6.05
2022-11-25T23:20:58.290Z,6.01
2022-11-25T23:25:59.705Z,5.94
2022-11-25T23:31:01.633Z,5.84
2022-11-25T23:36:09.093Z,5.80
2022-11-25T23:41:18.773Z,5.83
2022-11-25T23:46:24.348Z,5.79
2022-11-25T23:51:27.495Z,5.76
2022-11-25T23:56:28.919Z,5.70
